M I D A S
Marine Information and Data Acquisition System
Tripno 762 of the Zeeleeuw from 2004-08-16 06:43:36 to 2004-08-16 14:54:04
Back to CruiseResearch ActivitiesStationsMapUnderway DataData graphs

EquipmentUnitsComment
TimeDGPSUTC
LatitudeDGPSDM.mWGS84
LongitudeDGPSDM.mWGS84
TemperatureSBE03/SBE38deg celciusITS90
ConductivitySBE21S/mITS90
SalinitySBE21 Practical Salinity Units
ChlorophylAChelsea fluorimeterg/lCalibrated in Aceton
Missing or incorrect values are displayed as -999
Sea surface data collected by the RV Zeeleeuw from 2004-08-16 06:43:36 to 2004-08-16 14:54:04
Time Latitude Longitude Temperature Conductivity Salinity ChlorophylA
2004-08-16 06:44:41 51°13.595 2°56.114 22.191935 0.01391 0.071867 -0.74754
2004-08-16 06:45:48 51°13.595 2°56.115 22.19884 0.01391 0.071869 -0.781249
2004-08-16 06:46:44 51°13.597 2°56.108 22.178084 0.01391 0.071871 -0.781249
2004-08-16 06:47:48 51°13.625 2°56.023 21.666394 0.151253 0.803521 -0.646411
2004-08-16 06:48:48 51°13.638 2°55.977 21.310307 2.830922 18.851061 3.297589
2004-08-16 06:49:54 51°13.653 2°55.939 21.183202 3.014263 20.255468 3.23017
2004-08-16 06:50:53 51°13.689 2°55.841 21.092416 3.426102 23.385552 2.488563
2004-08-16 06:51:51 51°13.71 2°55.747 21.154147 3.41915 23.348869 2.353725
2004-08-16 06:52:54 51°13.719 2°55.726 21.138979 2.994685 20.153594 2.65711
2004-08-16 06:54:00 51°13.734 2°55.698 20.990422 3.061425 20.679621 2.522272
2004-08-16 06:55:09 51°13.848 2°55.61 21.122373 2.910063 19.606849 2.488563
2004-08-16 06:56:09 51°13.977 2°55.526 21.113451 2.6324 17.486411 3.263879
2004-08-16 06:57:09 51°14.112 2°55.43 21.139417 3.167235 21.462518 2.488563
2004-08-16 06:58:12 51°14.261 2°55.263 21.235392 2.75464 18.371099 2.825657
2004-08-16 06:59:12 51°14.387 2°55.017 21.189967 2.54889 16.843498 3.027913
2004-08-16 07:00:12 51°14.562 2°54.812 20.851349 3.5914 24.675605 2.185178
2004-08-16 07:01:14 51°14.772 2°54.691 20.700185 4.372767 30.911303 1.106477
2004-08-16 07:02:26 51°15.02 2°54.6 20.63938 4.641114 33.127581 0.567127
2004-08-16 07:03:25 51°15.205 2°54.473 20.595658 4.681098 33.480897 0.39858
2004-08-16 07:04:33 51°15.434 2°54.369 20.55243 4.686374 33.557321 0.39858
2004-08-16 07:05:41 51°15.667 2°54.267 20.555843 4.69281 33.633282 0.39858
2004-08-16 07:06:40 51°15.875 2°54.199 20.613551 4.688695 33.573737 0.39858
2004-08-16 07:07:43 51°16.046 2°54.126 20.680991 4.690277 33.538497 0.735674
2004-08-16 07:08:48 51°16.156 2°54.169 20.689126 4.680675 33.429244 1.072768
2004-08-16 07:09:48 51°16.221 2°54.239 20.686481 4.678354 33.410674 1.140187
2004-08-16 07:10:45 51°16.26 2°54.27 20.682674 4.678988 33.418476 1.173896
2004-08-16 07:11:53 51°16.27 2°54.256 20.681993 4.679304 33.423199 1.140187
2004-08-16 07:12:53 51°16.275 2°54.233 20.680751 4.678882 33.420369 1.140187
2004-08-16 07:14:00 51°16.281 2°54.207 20.678987 4.679093 33.422606 1.106477
2004-08-16 07:15:05 51°16.291 2°54.183 20.683436 4.680043 33.428561 1.207606
2004-08-16 07:16:04 51°16.363 2°54.09 20.687323 4.687322 33.481334 1.207606
2004-08-16 07:17:04 51°16.5 2°53.847 20.665079 4.687006 33.485933 1.207606
2004-08-16 07:18:04 51°16.637 2°53.562 20.647079 4.68996 33.527712 1.275024
2004-08-16 07:19:04 51°16.782 2°53.294 20.632041 4.692281 33.552356 1.173896
2004-08-16 07:20:05 51°16.928 2°53.04 20.570696 4.700405 33.650021 0.836802
2004-08-16 07:21:16 51°17.098 2°52.746 20.513756 4.705681 33.742224 0.870512
2004-08-16 07:22:20 51°17.254 2°52.472 20.463967 4.708319 33.800685 0.904221
2004-08-16 07:23:26 51°17.423 2°52.197 20.408028 4.70832 33.843066 1.140187
2004-08-16 07:24:24 51°17.584 2°51.986 20.356312 4.707477 33.875399 1.308734
2004-08-16 07:25:29 51°17.762 2°51.744 20.349185 4.701359 33.862983 1.207606
2004-08-16 07:26:32 51°17.939 2°51.518 20.392819 4.699459 33.825829 1.477281
2004-08-16 07:27:32 51°18.109 2°51.297 20.425084 4.700408 33.802756 1.679537
2004-08-16 07:28:32 51°18.289 2°51.102 20.415188 4.702096 33.803522 1.645828
2004-08-16 07:29:32 51°18.435 2°50.995 20.388312 4.698298 33.787982 1.342443
2004-08-16 07:30:32 51°18.49 2°51.048 20.378371 4.696611 33.793354 1.409862
2004-08-16 07:31:36 51°18.483 2°51.048 20.382838 4.697032 33.79564 1.342443
2004-08-16 07:32:36 51°18.473 2°51.052 20.392577 4.697666 33.802979 1.275024
2004-08-16 07:33:41 51°18.46 2°51.057 20.412292 4.698298 33.786866 1.376153
2004-08-16 07:34:42 51°18.45 2°51.061 20.439481 4.699353 33.788115 1.342443
2004-08-16 07:35:41 51°18.441 2°51.063 20.446559 4.701674 33.783394 1.409862
2004-08-16 07:36:40 51°18.444 2°51.077 20.446398 4.701357 33.780288 1.409862
2004-08-16 07:37:48 51°18.557 2°51.2 20.464851 4.700619 33.772113 1.51099
2004-08-16 07:38:45 51°18.669 2°51.423 20.506284 4.695237 33.704336 1.51099
2004-08-16 07:39:47 51°18.744 2°51.731 20.576957 4.696186 33.668149 1.679537
2004-08-16 07:40:48 51°18.817 2°52.04 20.626707 4.695341 33.609951 1.645828
2004-08-16 07:41:48 51°18.888 2°52.343 20.648081 4.692387 33.557054 1.679537
2004-08-16 07:42:47 51°18.959 2°52.64 20.648442 4.686795 33.501812 1.645828
2004-08-16 07:43:47 51°19.031 2°52.941 20.639901 4.674346 33.407063 1.578409
2004-08-16 07:44:48 51°19.108 2°53.245 20.644713 4.663796 33.323706 1.578409
2004-08-16 07:45:52 51°19.188 2°53.566 20.650888 4.659998 33.287307 1.645828
2004-08-16 07:46:56 51°19.269 2°53.887 20.643871 4.658943 33.276684 1.746956
2004-08-16 07:48:00 51°19.338 2°54.212 20.630156 4.651875 33.247398 1.645828
2004-08-16 07:49:02 51°19.406 2°54.522 20.63946 4.645546 33.186389 1.409862
2004-08-16 07:50:08 51°19.483 2°54.848 20.725421 4.583409 32.633679 1.140187
2004-08-16 07:51:08 51°19.551 2°55.144 20.746365 4.573071 32.52578 1.308734
2004-08-16 07:52:08 51°19.617 2°55.44 20.738997 4.581721 32.602095 1.207606
2004-08-16 07:53:08 51°19.679 2°55.74 20.748127 4.565054 32.459332 1.207606
2004-08-16 07:54:16 51°19.749 2°56.08 20.761458 4.566108 32.457646 1.072768
2004-08-16 07:55:16 51°19.806 2°56.383 20.757215 4.565686 32.453229 1.173896
2004-08-16 07:56:16 51°19.864 2°56.686 20.759857 4.556509 32.380783 1.241315
2004-08-16 07:57:20 51°19.929 2°57.008 20.760177 4.54596 32.293241 1.173896
2004-08-16 07:58:20 51°19.991 2°57.306 20.762939 4.539737 32.243264 1.241315
2004-08-16 07:59:20 51°20.052 2°57.605 20.772145 4.531825 32.17832 1.342443
2004-08-16 08:00:21 51°20.112 2°57.909 20.781631 4.528661 32.144267 1.443571
2004-08-16 08:01:21 51°20.17 2°58.209 20.784592 4.518851 32.063265 1.477281
2004-08-16 08:02:20 51°20.225 2°58.504 20.796556 4.509252 31.981895 1.578409
2004-08-16 08:03:24 51°20.285 2°58.825 20.802717 4.500285 31.903514 1.578409
2004-08-16 08:04:25 51°20.344 2°59.13 20.808358 4.495539 31.861218 1.645828
2004-08-16 08:05:32 51°20.409 2°59.464 20.813079 4.488682 31.801194 1.645828
2004-08-16 08:06:32 51°20.467 2°59.766 20.814679 4.480771 31.736996 1.645828
2004-08-16 08:07:31 51°20.524 3°0.063 20.819638 4.4794 31.724588 1.780665
2004-08-16 08:08:32 51°20.584 3°0.372 20.820198 4.477607 31.707809 1.578409
2004-08-16 08:09:32 51°20.639 3°0.676 20.826438 4.474759 31.68217 1.746956
2004-08-16 08:10:34 51°20.697 3°0.988 20.838315 4.472016 31.654277 1.679537
2004-08-16 08:11:40 51°20.759 3°1.32 20.847911 4.469801 31.627994 1.5447
2004-08-16 08:12:40 51°20.815 3°1.623 20.856107 4.46843 31.612002 1.746956
2004-08-16 08:13:40 51°20.87 3°1.927 20.869418 4.469801 31.615636 1.746956
2004-08-16 08:14:46 51°20.934 3°2.259 20.87885 4.474231 31.639844 1.578409
2004-08-16 08:15:52 51°20.997 3°2.591 20.882567 4.474864 31.641757 1.746956
2004-08-16 08:16:52 51°21.058 3°2.894 20.881807 4.476129 31.648671 1.881794
2004-08-16 08:17:52 51°21.127 3°3.194 20.882127 4.475813 31.647715 2.016631
2004-08-16 08:18:52 51°21.193 3°3.494 20.882247 4.475602 31.646047 2.050341
2004-08-16 08:19:52 51°21.252 3°3.798 20.880728 4.46073 31.528542 1.578409
2004-08-16 08:20:52 51°21.309 3°4.104 20.880369 4.471066 31.610205 1.409862
2004-08-16 08:21:52 51°21.37 3°4.408 20.887162 4.470328 31.600258 1.308734
2004-08-16 08:22:52 51°21.432 3°4.714 20.894155 4.469906 31.592814 1.140187
2004-08-16 08:23:53 51°21.489 3°5.026 20.890798 4.470117 31.591911 1.308734
2004-08-16 08:24:53 51°21.543 3°5.333 20.877611 4.471594 31.609744 1.140187
2004-08-16 08:25:55 51°21.594 3°5.653 20.869738 4.472438 31.625157 1.207606
2004-08-16 08:26:52 51°21.642 3°5.949 20.864182 4.472332 31.628441 1.207606
2004-08-16 08:28:00 51°21.704 3°6.303 20.849071 4.472227 31.63533 1.342443
2004-08-16 08:29:00 51°21.758 3°6.618 20.852629 4.472965 31.64632 1.51099
2004-08-16 08:30:00 51°21.814 3°6.933 20.860184 4.475075 31.656302 1.308734
2004-08-16 08:31:00 51°21.862 3°7.251 20.848831 4.475286 31.659 1.308734
2004-08-16 08:32:00 51°21.915 3°7.566 20.840074 4.474653 31.661728 1.275024
2004-08-16 08:32:59 51°21.966 3°7.877 20.836276 4.473598 31.660089 1.376153
2004-08-16 08:34:00 51°22.013 3°8.202 20.835636 4.471278 31.642765 1.207606
2004-08-16 08:35:14 51°22.068 3°8.596 20.836715 4.465793 31.600416 1.409862
2004-08-16 08:36:13 51°22.075 3°8.919 20.841114 4.459675 31.548443 1.140187
2004-08-16 08:37:13 51°22.059 3°9.25 20.85007 4.452081 31.484312 1.173896
2004-08-16 08:38:14 51°22.048 3°9.586 20.857546 4.449655 31.457971 1.173896
2004-08-16 08:39:14 51°22.049 3°9.919 20.859705 4.447862 31.441247 1.173896
2004-08-16 08:40:13 51°22.054 3°10.248 20.85111 4.446174 31.429453 1.241315
2004-08-16 08:41:20 51°22.068 3°10.625 20.840634 4.442272 31.407833 1.275024
2004-08-16 08:42:20 51°22.08 3°10.968 20.840354 4.438053 31.378083 1.308734
2004-08-16 08:43:26 51°22.117 3°11.341 20.845312 4.436365 31.362199 1.376153
2004-08-16 08:44:26 51°22.192 3°11.662 20.848551 4.433939 31.338957 1.342443
2004-08-16 08:45:31 51°22.274 3°12.011 20.839235 4.429615 31.306851 1.51099
2004-08-16 08:46:36 51°22.354 3°12.36 20.836635 4.426978 31.290108 1.477281
2004-08-16 08:47:36 51°22.442 3°12.674 20.839634 4.424763 31.276184 1.578409
2004-08-16 08:48:38 51°22.531 3°12.99 20.849271 4.426556 31.284739 1.5447
2004-08-16 08:49:38 51°22.586 3°13.178 20.858825 4.425079 31.261882 1.679537
2004-08-16 08:50:38 51°22.62 3°13.23 20.880369 4.425818 31.263639 1.645828
2004-08-16 08:51:37 51°22.62 3°13.232 20.885244 4.428349 31.269877 1.645828
2004-08-16 08:52:37 51°22.62 3°13.241 20.883486 4.430564 31.285824 1.612118
2004-08-16 08:53:37 51°22.621 3°13.253 20.914369 4.431513 31.279069 1.612118
2004-08-16 08:54:37 51°22.627 3°13.266 20.905381 4.431618 31.278376 1.645828
2004-08-16 08:55:51 51°22.68 3°13.298 20.898909 4.424657 31.229077 1.645828
2004-08-16 08:56:53 51°22.842 3°13.424 20.898989 4.427927 31.253333 1.645828
2004-08-16 08:57:52 51°22.981 3°13.655 20.894554 4.441744 31.367918 1.5447
2004-08-16 08:58:52 51°23.087 3°13.946 20.909656 4.440689 31.348891 1.477281
2004-08-16 08:59:53 51°23.185 3°14.251 20.917964 4.437419 31.316487 1.612118
2004-08-16 09:00:52 51°23.28 3°14.547 20.916526 4.436259 31.303778 1.5447
2004-08-16 09:01:53 51°23.391 3°14.841 20.917046 4.434255 31.292556 1.679537
2004-08-16 09:02:51 51°23.546 3°15.05 20.911653 4.447756 31.397492 1.5447
2004-08-16 09:03:53 51°23.718 3°15.267 20.908138 4.45324 31.443313 1.409862
2004-08-16 09:04:57 51°23.892 3°15.494 20.89835 4.450287 31.421034 1.207606
2004-08-16 09:05:58 51°24.058 3°15.713 20.888681 4.437841 31.33458 1.140187
2004-08-16 09:06:58 51°24.228 3°15.919 20.895234 4.444802 31.388992 1.106477
2004-08-16 09:08:01 51°24.414 3°16.138 20.869578 4.450815 31.443593 1.106477
2004-08-16 09:09:00 51°24.59 3°16.351 20.864941 4.464738 31.567908 1.072768
2004-08-16 09:10:00 51°24.768 3°16.571 20.869338 4.468008 31.58912 1.072768
2004-08-16 09:11:01 51°24.949 3°16.786 20.806078 4.475813 31.673484 1.140187
2004-08-16 09:12:01 51°25.122 3°16.999 20.813399 4.486362 31.784371 1.106477
2004-08-16 09:13:01 51°25.296 3°17.204 20.805398 4.496277 31.858755 1.140187
2004-08-16 09:14:01 51°25.476 3°17.395 20.775587 4.501446 31.910108 1.207606
2004-08-16 09:15:01 51°25.66 3°17.573 20.737476 4.508724 31.991807 1.308734
2004-08-16 09:16:01 51°25.788 3°17.702 20.690649 4.511889 32.04936 1.409862
2004-08-16 09:17:01 51°25.882 3°17.787 20.669729 4.511046 32.069395 1.275024
2004-08-16 09:18:01 51°25.919 3°17.821 20.676502 4.512207 32.085444 1.376153
2004-08-16 09:19:00 51°25.915 3°17.847 20.673056 4.513156 32.090367 1.409862
2004-08-16 09:20:01 51°25.91 3°17.88 20.686 4.513578 32.096874 1.342443
2004-08-16 09:21:01 51°25.907 3°17.917 20.69113 4.516004 32.098306 1.308734
2004-08-16 09:22:08 51°25.906 3°17.957 20.683796 4.516637 32.111741 1.376153
2004-08-16 09:23:08 51°25.907 3°17.993 20.676342 4.51632 32.111326 1.308734
2004-08-16 09:24:08 51°25.978 3°17.994 20.672895 4.515793 32.111862 1.376153
2004-08-16 09:25:07 51°25.989 3°17.791 20.683396 4.516215 32.11732 1.376153
2004-08-16 09:26:08 51°25.947 3°17.473 20.687683 4.517375 32.117611 1.409862
2004-08-16 09:27:08 51°25.909 3°17.143 20.70347 4.518852 32.120419 1.409862
2004-08-16 09:28:08 51°25.866 3°16.808 20.716009 4.513155 32.064132 1.477281
2004-08-16 09:29:08 51°25.823 3°16.474 20.728185 4.514948 32.06999 1.443571
2004-08-16 09:30:08 51°25.796 3°16.137 20.738357 4.51632 32.072495 1.5447
2004-08-16 09:31:08 51°25.747 3°15.803 20.750809 4.515159 32.056995 1.51099
2004-08-16 09:32:08 51°25.711 3°15.465 20.756294 4.518007 32.072798 1.5447
2004-08-16 09:33:08 51°25.66 3°15.13 20.756374 4.52845 32.150465 1.477281
2004-08-16 09:34:08 51°25.622 3°14.792 20.752491 4.529927 32.165343 1.477281
2004-08-16 09:35:08 51°25.586 3°14.452 20.745764 4.531192 32.176972 1.5447
2004-08-16 09:36:08 51°25.543 3°14.111 20.742361 4.53288 32.195635 1.443571
2004-08-16 09:37:08 51°25.517 3°13.764 20.745484 4.535095 32.215865 1.477281
2004-08-16 09:38:08 51°25.494 3°13.418 20.762018 4.53731 32.224517 1.443571
2004-08-16 09:39:08 51°25.47 3°13.073 20.767743 4.539525 32.232113 1.443571
2004-08-16 09:40:08 51°25.445 3°12.728 20.769504 4.539842 32.233048 1.376153
2004-08-16 09:41:14 51°25.417 3°12.35 20.768103 4.539947 32.233885 1.51099
2004-08-16 09:42:14 51°25.393 3°12.005 20.763059 4.540369 32.239342 1.342443
2004-08-16 09:43:13 51°25.415 3°11.673 20.746245 4.541108 32.250472 1.342443
2004-08-16 09:44:14 51°25.455 3°11.336 20.736314 4.543112 32.275881 1.376153
2004-08-16 09:45:18 51°25.596 3°11.079 20.720735 4.544695 32.300064 1.275024
2004-08-16 09:46:17 51°25.73 3°10.854 20.720495 4.546277 32.317398 1.477281
2004-08-16 09:47:24 51°25.897 3°10.626 20.71649 4.547859 32.332095 1.376153
2004-08-16 09:48:23 51°25.984 3°10.34 20.707717 4.548493 32.342944 1.409862
2004-08-16 09:49:23 51°26.045 3°10.023 20.710601 4.550075 32.360294 1.275024
2004-08-16 09:50:23 51°26.108 3°9.702 20.701467 4.552607 32.379908 1.241315
2004-08-16 09:51:24 51°26.165 3°9.367 20.702388 4.555033 32.401333 1.140187
2004-08-16 09:52:24 51°26.222 3°9.037 20.700385 4.557037 32.418344 1.106477
2004-08-16 09:53:24 51°26.275 3°8.724 20.699103 4.558408 32.43032 1.072768
2004-08-16 09:54:24 51°26.328 3°8.582 20.695177 4.559252 32.439159 1.039059
2004-08-16 09:55:24 51°26.41 3°8.474 20.698342 4.559463 32.443492 1.039059
2004-08-16 09:56:24 51°26.458 3°8.371 20.699344 4.560307 32.446495 1.005349
2004-08-16 09:57:24 51°26.457 3°8.353 20.705113 4.561678 32.452634 0.904221
2004-08-16 09:58:24 51°26.454 3°8.354 20.699544 4.561468 32.456794 1.072768
2004-08-16 09:59:28 51°26.449 3°8.356 20.698302 4.562101 32.461302 0.97164
2004-08-16 10:00:32 51°26.442 3°8.357 20.701627 4.561784 32.460376 1.005349
2004-08-16 10:01:32 51°26.433 3°8.36 20.700105 4.561784 32.459845 0.870512
2004-08-16 10:02:38 51°26.423 3°8.363 20.718012 4.56305 32.461426 0.93793
2004-08-16 10:03:39 51°26.412 3°8.366 20.75225 4.564948 32.461145 0.870512
2004-08-16 10:04:40 51°26.421 3°8.325 20.775667 4.568323 32.461477 1.072768
2004-08-16 10:05:45 51°26.432 3°8.041 20.714727 4.567163 32.467627 1.005349
2004-08-16 10:06:45 51°26.454 3°7.702 20.695297 4.565054 32.478442 0.97164
2004-08-16 10:07:44 51°26.546 3°7.403 20.695858 4.566109 32.495343 1.106477
2004-08-16 10:08:44 51°26.657 3°7.111 20.708318 4.56959 32.519872 1.039059
2004-08-16 10:09:45 51°26.768 3°6.814 20.698422 4.572544 32.539135 1.039059
2004-08-16 10:10:44 51°26.876 3°6.526 20.702509 4.575919 32.569746 0.93793
2004-08-16 10:11:44 51°26.985 3°6.233 20.701747 4.580455 32.604277 0.904221
2004-08-16 10:12:45 51°27.096 3°5.934 20.710281 4.585835 32.643933 0.803093
2004-08-16 10:13:45 51°27.217 3°5.651 20.712884 4.589949 32.672969 0.904221
2004-08-16 10:14:55 51°27.37 3°5.338 20.711923 4.592587 32.691842 0.836802
2004-08-16 10:16:03 51°27.521 3°5.033 20.717771 4.595646 32.716216 0.836802
2004-08-16 10:17:04 51°27.655 3°4.758 20.720575 4.598705 32.735775 0.904221
2004-08-16 10:18:10 51°27.801 3°4.46 20.725822 4.600498 32.748458 0.803093
2004-08-16 10:19:26 51°27.969 3°4.114 20.727544 4.60303 32.765953 0.803093
2004-08-16 10:20:32 51°28.115 3°3.812 20.736074 4.605245 32.777174 0.668255
2004-08-16 10:21:35 51°28.236 3°3.555 20.715849 4.603979 32.766554 0.735674
2004-08-16 10:22:34 51°28.267 3°3.452 20.690809 4.603347 32.790456 0.634546
2004-08-16 10:23:40 51°28.259 3°3.444 20.690729 4.604296 32.798026 0.634546
2004-08-16 10:24:40 51°28.255 3°3.44 20.673056 4.604191 32.800942 0.701965
2004-08-16 10:25:40 51°28.253 3°3.438 20.650366 4.601343 32.802388 0.668255
2004-08-16 10:26:40 51°28.252 3°3.437 20.666201 4.601449 32.803767 0.668255
2004-08-16 10:27:40 51°28.251 3°3.433 20.678226 4.603453 32.80794 0.769383
2004-08-16 10:28:40 51°28.249 3°3.43 20.686161 4.603558 32.8018 0.567127
2004-08-16 10:29:53 51°28.247 3°3.426 20.729627 4.604402 32.78492 0.668255
2004-08-16 10:30:53 51°28.245 3°3.421 20.738597 4.607566 32.795129 0.701965
2004-08-16 10:32:06 51°28.242 3°3.417 20.748607 4.608199 32.798563 0.769383
2004-08-16 10:33:08 51°28.242 3°3.414 20.748807 4.608937 32.797478 0.668255
2004-08-16 10:34:08 51°28.283 3°3.346 20.71661 4.608832 32.79771 0.803093
2004-08-16 10:35:18 51°28.328 3°3.011 20.637776 4.603347 32.806024 0.836802
2004-08-16 10:36:18 51°28.278 3°2.66 20.603401 4.59955 32.815493 0.668255
2004-08-16 10:37:24 51°28.218 3°2.271 20.59955 4.597863 32.815466 0.93793
2004-08-16 10:38:28 51°28.163 3°1.892 20.620531 4.597652 32.812166 0.803093
2004-08-16 10:39:29 51°28.112 3°1.529 20.562427 4.599551 32.828412 0.870512
2004-08-16 10:40:38 51°28.054 3°1.12 20.549861 4.595859 32.840403 0.904221
2004-08-16 10:41:48 51°27.996 3°0.704 20.594414 4.597336 32.829025 0.769383
2004-08-16 10:42:48 51°27.945 3°0.346 20.592488 4.596386 32.81228 0.769383
2004-08-16 10:43:48 51°27.896 2°59.99 20.605809 4.594804 32.80502 0.870512
2004-08-16 10:44:50 51°27.845 2°59.622 20.625223 4.594592 32.782352 0.803093
2004-08-16 10:45:48 51°27.797 2°59.279 20.612307 4.593221 32.76925 0.769383
2004-08-16 10:46:50 51°27.744 2°58.914 20.599148 4.590056 32.753112 0.769383
2004-08-16 10:48:03 51°27.659 2°58.494 20.594534 4.588474 32.738863 0.803093
2004-08-16 10:49:04 51°27.588 2°58.141 20.596701 4.589002 32.757046 0.904221
2004-08-16 10:50:13 51°27.509 2°57.739 20.622977 4.588896 32.738474 0.735674
2004-08-16 10:51:15 51°27.439 2°57.378 20.640543 4.587946 32.717479 0.803093
2004-08-16 10:52:15 51°27.371 2°57.028 20.654335 4.588262 32.708746 0.803093
2004-08-16 10:53:18 51°27.301 2°56.663 20.650727 4.589845 32.716547 0.803093
2004-08-16 10:54:17 51°27.238 2°56.318 20.624822 4.5909 32.736226 0.735674
2004-08-16 10:55:24 51°27.166 2°55.927 20.611946 4.592272 32.764356 0.803093
2004-08-16 10:56:33 51°27.093 2°55.524 20.607052 4.591744 32.761755 0.904221
2004-08-16 10:57:37 51°27.026 2°55.151 20.581452 4.590268 32.762321 0.870512
2004-08-16 10:58:43 51°26.958 2°54.767 20.561584 4.594804 32.813099 1.106477
2004-08-16 10:59:43 51°26.897 2°54.42 20.580048 4.597441 32.839033 1.140187
2004-08-16 11:00:48 51°26.833 2°54.044 20.559496 4.598707 32.841066 1.207606
2004-08-16 11:01:48 51°26.776 2°53.698 20.523276 4.599657 32.877804 1.275024
2004-08-16 11:02:58 51°26.709 2°53.297 20.458017 4.608519 32.960636 1.342443
2004-08-16 11:04:15 51°26.635 2°52.857 20.360136 4.624345 33.197138 1.443571
2004-08-16 11:05:20 51°26.573 2°52.492 20.275422 4.630253 33.289162 1.645828
2004-08-16 11:06:28 51°26.518 2°52.113 20.201016 4.636901 33.421746 1.881794
2004-08-16 11:07:32 51°26.466 2°51.758 20.17216 4.637851 33.458829 2.050341
2004-08-16 11:08:43 51°26.405 2°51.364 20.168406 4.638062 33.472762 1.881794
2004-08-16 11:09:51 51°26.348 2°50.989 20.151773 4.638906 33.487374 1.982922
2004-08-16 11:11:00 51°26.292 2°50.608 20.144302 4.639328 33.500807 1.982922
2004-08-16 11:12:03 51°26.241 2°50.262 20.133681 4.63975 33.512019 1.982922
2004-08-16 11:13:08 51°26.189 2°49.906 20.11506 4.639962 33.524876 2.016631
2004-08-16 11:14:19 51°26.132 2°49.517 20.094413 4.639434 33.535112 1.915503
2004-08-16 11:15:28 51°26.077 2°49.136 20.068788 4.637641 33.541807 2.117759
2004-08-16 11:16:28 51°26.033 2°48.831 20.05294 4.636903 33.548678 1.949212
2004-08-16 11:17:36 51°25.999 2°48.62 20.047521 4.634055 33.536772 2.117759
2004-08-16 11:18:34 51°25.991 2°48.525 20.043073 4.633528 33.540884 2.117759
2004-08-16 11:19:48 51°25.991 2°48.562 20.040525 4.630574 33.514699 2.050341
2004-08-16 11:20:50 51°25.99 2°48.597 20.035106 4.630046 33.518248 2.117759
2004-08-16 11:21:53 51°25.991 2°48.627 20.042264 4.633106 33.539699 2.218888
2004-08-16 11:22:56 51°25.996 2°48.657 20.045176 4.63395 33.542627 2.08405
2004-08-16 11:23:56 51°26.004 2°48.687 20.047926 4.634055 33.541245 2.117759
2004-08-16 11:24:56 51°26.013 2°48.715 20.065918 4.634266 33.537923 2.050341
2004-08-16 11:26:00 51°26.065 2°48.697 20.070486 4.636798 33.540557 2.08405
2004-08-16 11:27:08 51°26.105 2°48.423 20.063937 4.635848 33.540687 1.949212
2004-08-16 11:28:08 51°26.042 2°48.116 20.059975 4.635848 33.542364 1.949212
2004-08-16 11:29:12 51°25.919 2°47.817 20.061349 4.636376 33.549994 1.915503
2004-08-16 11:30:12 51°25.805 2°47.537 20.07473 4.637642 33.557459 2.117759
2004-08-16 11:31:14 51°25.695 2°47.244 20.11405 4.640701 33.558768 2.08405
2004-08-16 11:32:33 51°25.554 2°46.873 20.145352 4.645658 33.567636 2.218888
2004-08-16 11:33:40 51°25.439 2°46.556 20.161422 4.647662 33.566554 2.252597
2004-08-16 11:34:48 51°25.319 2°46.233 20.18318 4.645447 33.533023 2.151469
2004-08-16 11:35:48 51°25.215 2°45.945 20.200492 4.647662 33.538123 2.218888
2004-08-16 11:36:55 51°25.096 2°45.626 20.215016 4.648295 33.535444 2.016631
2004-08-16 11:38:00 51°24.981 2°45.316 20.238693 4.658633 33.598377 2.117759
2004-08-16 11:39:05 51°24.867 2°45.006 20.24454 4.661798 33.615028 2.08405
2004-08-16 11:40:04 51°24.765 2°44.725 20.239943 4.663908 33.627612 2.050341
2004-08-16 11:41:05 51°24.66 2°44.436 20.239459 4.664963 33.641714 1.982922
2004-08-16 11:42:04 51°24.557 2°44.159 20.236071 4.667495 33.660497 2.016631
2004-08-16 11:43:09 51°24.448 2°43.858 20.231474 4.669394 33.68031 2.050341
2004-08-16 11:44:09 51°24.346 2°43.581 20.220018 4.670132 33.695222 1.949212
2004-08-16 11:45:08 51°24.246 2°43.31 20.213322 4.671504 33.711344 1.881794
2004-08-16 11:46:09 51°24.143 2°43.032 20.223971 4.673508 33.720837 1.881794
2004-08-16 11:47:12 51°24.035 2°42.744 20.210215 4.675196 33.733925 1.881794
2004-08-16 11:48:18 51°23.921 2°42.442 20.178134 4.672032 33.731285 1.780665
2004-08-16 11:49:28 51°23.823 2°42.104 20.159686 4.670028 33.735799 2.016631
2004-08-16 11:50:32 51°23.733 2°41.794 20.147533 4.669606 33.742477 1.713247
2004-08-16 11:51:35 51°23.643 2°41.489 20.135458 4.668973 33.747451 1.848084
2004-08-16 11:52:32 51°23.563 2°41.211 20.128269 4.670028 33.759925 1.848084
2004-08-16 11:53:42 51°23.464 2°40.871 20.106172 4.671294 33.785916 1.679537
2004-08-16 11:54:45 51°23.382 2°40.56 20.075579 4.670662 33.799913 1.645828
2004-08-16 11:55:43 51°23.312 2°40.272 20.047238 4.669818 33.817288 1.578409
2004-08-16 11:56:58 51°23.223 2°39.899 20.00598 4.666549 33.834182 1.51099
2004-08-16 11:57:57 51°23.156 2°39.604 19.984815 4.667076 33.845248 1.342443
2004-08-16 11:59:08 51°23.074 2°39.25 19.917597 4.66465 33.865687 1.207606
2004-08-16 12:00:08 51°23.005 2°38.956 19.798674 4.659588 33.891383 1.106477
2004-08-16 12:01:09 51°22.935 2°38.656 19.776757 4.654631 33.913519 1.072768
2004-08-16 12:02:09 51°22.865 2°38.362 19.756011 4.645136 33.841701 1.039059
2004-08-16 12:03:10 51°22.792 2°38.063 19.76949 4.642288 33.838352 0.93793
2004-08-16 12:04:10 51°22.722 2°37.765 19.798877 4.645874 33.838632 1.072768
2004-08-16 12:05:10 51°22.65 2°37.468 19.781466 4.645558 33.841734 1.173896
2004-08-16 12:06:09 51°22.561 2°37.19 19.771845 4.645453 33.840873 1.140187
2004-08-16 12:07:09 51°22.469 2°36.908 19.721162 4.643765 33.849845 1.106477
2004-08-16 12:08:09 51°22.382 2°36.629 19.62518 4.638491 33.857443 0.97164
2004-08-16 12:09:09 51°22.295 2°36.351 19.649421 4.632584 33.861617 0.93793
2004-08-16 12:10:10 51°22.197 2°36.076 19.645314 4.63385 33.852561 0.97164
2004-08-16 12:11:15 51°22.087 2°35.782 19.650397 4.630685 33.830082 1.005349
2004-08-16 12:12:14 51°21.986 2°35.512 19.685525 4.630896 33.807293 0.97164
2004-08-16 12:13:15 51°21.883 2°35.231 19.701375 4.636065 33.843301 0.97164
2004-08-16 12:14:14 51°21.784 2°34.959 19.693938 4.637225 33.838541 1.005349
2004-08-16 12:15:15 51°21.684 2°34.677 19.675362 4.636487 33.849034 1.039059
2004-08-16 12:16:14 51°21.583 2°34.408 19.665768 4.63174 33.814765 0.93793
2004-08-16 12:17:15 51°21.484 2°34.128 19.645843 4.630474 33.8198 1.039059
2004-08-16 12:18:15 51°21.39 2°33.851 19.634332 4.629947 33.829174 0.97164
2004-08-16 12:19:16 51°21.294 2°33.574 19.614846 4.627943 33.819042 1.005349
2004-08-16 12:20:14 51°21.205 2°33.311 19.537375 4.624146 33.831912 1.005349
2004-08-16 12:21:15 51°21.112 2°33.031 19.500462 4.617606 33.816601 1.173896
2004-08-16 12:22:14 51°21.02 2°32.761 19.464997 4.627839 33.931003 1.342443
2004-08-16 12:23:14 51°20.928 2°32.489 19.464997 4.625308 33.938381 1.443571
2004-08-16 12:24:17 51°20.833 2°32.203 19.446687 4.625835 33.936962 1.342443
2004-08-16 12:25:17 51°20.739 2°31.933 19.419111 4.624148 33.940353 1.241315
2004-08-16 12:26:17 51°20.646 2°31.663 19.405482 4.621511 33.940548 1.308734
2004-08-16 12:27:17 51°20.551 2°31.397 19.38634 4.620456 33.945124 1.275024
2004-08-16 12:28:16 51°20.457 2°31.138 19.367316 4.618452 33.948234 1.275024
2004-08-16 12:29:21 51°20.354 2°30.854 19.366458 4.618136 33.946205 1.308734
2004-08-16 12:30:21 51°20.26 2°30.595 19.34849 4.617608 33.952827 1.308734
2004-08-16 12:31:32 51°20.15 2°30.291 19.335623 4.615921 33.949315 1.342443
2004-08-16 12:32:32 51°20.078 2°30.083 19.328515 4.615288 33.956808 1.746956
2004-08-16 12:33:32 51°20.054 2°29.984 19.364335 4.616237 33.9577 1.612118
2004-08-16 12:34:32 51°20.078 2°30 19.406707 4.619718 33.952311 1.241315
2004-08-16 12:35:32 51°20.131 2°30.022 19.41193 4.614232 33.895628 1.477281
2004-08-16 12:36:32 51°20.17 2°30.057 19.42107 4.614548 33.879817 1.443571
2004-08-16 12:37:32 51°20.201 2°30.095 19.401197 4.61497 33.893069 1.578409
2004-08-16 12:38:30 51°20.227 2°30.138 19.406707 4.614232 33.888145 1.443571
2004-08-16 12:39:32 51°20.249 2°30.164 19.406176 4.613704 33.887833 1.51099
2004-08-16 12:40:32 51°20.26 2°30.183 19.407523 4.61497 33.886164 1.477281
2004-08-16 12:41:32 51°20.268 2°30.198 19.405197 4.616131 33.899738 1.409862
2004-08-16 12:42:32 51°20.276 2°30.211 19.422498 4.615181 33.891352 1.443571
2004-08-16 12:43:37 51°20.278 2°30.227 19.435348 4.648939 34.156485 1.207606
2004-08-16 12:44:37 51°20.277 2°30.245 19.415643 4.648623 34.161418 1.173896
2004-08-16 12:45:37 51°20.286 2°30.261 19.406339 4.647462 34.147802 1.207606
2004-08-16 12:46:37 51°20.243 2°30.272 19.40891 4.645353 34.152463 1.308734
2004-08-16 12:47:38 51°20.099 2°30.44 19.365274 4.64683 34.16173 1.140187
2004-08-16 12:48:44 51°19.897 2°30.67 19.306819 4.639974 34.166778 1.241315
2004-08-16 12:49:48 51°19.721 2°30.947 19.304326 4.637758 34.161292 1.241315
2004-08-16 12:50:48 51°19.56 2°31.205 19.323082 4.637125 34.156649 1.477281
2004-08-16 12:51:49 51°19.397 2°31.465 19.352697 4.638708 34.149936 1.51099
2004-08-16 12:52:49 51°19.237 2°31.719 19.377808 4.641028 34.144096 1.578409
2004-08-16 12:53:52 51°19.078 2°31.996 19.420254 4.642188 34.130448 1.578409
2004-08-16 12:54:54 51°18.925 2°32.276 19.482732 4.646829 34.118265 1.376153
2004-08-16 12:55:54 51°18.777 2°32.544 19.517577 4.649993 34.109019 1.409862
2004-08-16 12:56:52 51°18.628 2°32.799 19.607074 4.653368 34.098073 2.387435
2004-08-16 12:57:58 51°18.466 2°33.106 19.635715 4.66033 34.090674 1.106477
2004-08-16 12:59:04 51°18.302 2°33.413 19.626522 4.660752 34.088955 1.612118
2004-08-16 13:00:04 51°18.154 2°33.695 19.61391 4.659275 34.086053 1.173896
2004-08-16 13:01:03 51°18.006 2°33.975 19.590918 4.658115 34.086897 1.342443
2004-08-16 13:02:04 51°17.853 2°34.264 19.601011 4.65706 34.088032 1.376153
2004-08-16 13:03:12 51°17.689 2°34.592 19.595557 4.658642 34.090648 1.477281
2004-08-16 13:04:12 51°17.543 2°34.883 19.558268 4.655794 34.096658 1.241315
2004-08-16 13:05:13 51°17.387 2°35.167 19.524054 4.653579 34.098075 1.443571
2004-08-16 13:06:13 51°17.235 2°35.451 19.5047 4.651153 34.102383 1.376153
2004-08-16 13:07:14 51°17.077 2°35.733 19.503111 4.650415 34.103822 1.578409
2004-08-16 13:08:14 51°16.928 2°36.012 19.512769 4.651259 34.109025 1.645828
2004-08-16 13:09:14 51°16.781 2°36.293 19.517862 4.652103 34.11365 1.173896
2004-08-16 13:10:19 51°16.644 2°36.566 19.551467 4.653579 34.107307 1.612118
2004-08-16 13:11:19 51°16.607 2°36.738 19.605406 4.656216 34.096663 1.746956
2004-08-16 13:12:19 51°16.564 2°36.772 19.64812 4.659697 34.082033 2.252597
2004-08-16 13:13:18 51°16.557 2°36.772 19.661377 4.662967 34.088707 2.421144
2004-08-16 13:14:20 51°16.561 2°36.78 19.667597 4.663811 34.086999 2.353725
2004-08-16 13:15:18 51°16.571 2°36.797 19.66593 4.664233 34.088157 2.185178
2004-08-16 13:16:19 51°16.586 2°36.82 19.667963 4.664338 34.089021 1.881794
2004-08-16 13:17:19 51°16.603 2°36.847 19.668207 4.664127 34.086718 1.780665
2004-08-16 13:18:19 51°16.626 2°36.876 19.681094 4.664338 34.087872 2.286306
2004-08-16 13:19:19 51°16.635 2°36.873 19.686744 4.665604 34.086748 2.151469
2004-08-16 13:20:18 51°16.529 2°36.917 19.674468 4.665077 34.085301 2.353725
2004-08-16 13:21:19 51°16.335 2°36.958 19.678086 4.665288 34.087603 1.949212
2004-08-16 13:22:19 51°16.139 2°37.043 19.677395 4.664866 34.082999 2.016631
2004-08-16 13:23:17 51°15.947 2°37.131 19.691499 4.664866 34.081276 1.679537
2004-08-16 13:24:19 51°15.738 2°37.218 19.718847 4.666448 34.077007 1.848084
2004-08-16 13:25:19 51°15.54 2°37.35 19.746914 4.669612 34.079954 1.746956
2004-08-16 13:26:18 51°15.352 2°37.523 19.754792 4.672882 34.089497 1.679537
2004-08-16 13:27:19 51°15.169 2°37.741 19.747158 4.672882 34.088924 1.679537
2004-08-16 13:28:18 51°14.985 2°37.945 19.742772 4.6713 34.082864 1.51099
2004-08-16 13:29:19 51°14.795 2°38.155 19.743584 4.670878 34.081707 1.645828
2004-08-16 13:30:18 51°14.617 2°38.361 19.743422 4.670456 34.075963 1.679537
2004-08-16 13:31:18 51°14.434 2°38.567 19.735705 4.670034 34.073085 1.746956
2004-08-16 13:32:18 51°14.24 2°38.729 19.73274 4.668874 34.071047 1.578409
2004-08-16 13:33:18 51°14.038 2°38.832 19.771764 4.668346 34.065586 1.612118
2004-08-16 13:34:30 51°13.79 2°38.79 19.950526 4.679316 34.052233 2.117759
2004-08-16 13:35:30 51°13.592 2°38.704 19.99728 4.691025 34.058146 1.578409
2004-08-16 13:36:31 51°13.419 2°38.532 20.010633 4.6944 34.063422 1.578409
2004-08-16 13:37:36 51°13.231 2°38.348 20.023983 4.695455 34.061196 1.915503
2004-08-16 13:38:36 51°13.056 2°38.183 20.005535 4.695455 34.059491 2.08405
2004-08-16 13:39:36 51°12.881 2°38.021 19.983237 4.693135 34.061088 1.51099
2004-08-16 13:40:37 51°12.703 2°37.854 19.981941 4.691236 34.057587 1.612118
2004-08-16 13:41:36 51°12.53 2°37.692 20.016782 4.692607 34.055659 1.679537
2004-08-16 13:42:37 51°12.349 2°37.528 20.04279 4.69651 34.0567 1.713247
2004-08-16 13:43:36 51°12.174 2°37.377 20.037007 4.697354 34.058446 1.746956
2004-08-16 13:44:36 51°11.978 2°37.272 20.02738 4.697038 34.062125 1.443571
2004-08-16 13:45:36 51°11.781 2°37.169 20.026491 4.696405 34.059821 2.488563
2004-08-16 13:46:36 51°11.586 2°37.065 20.017672 4.696194 34.058674 2.522272
2004-08-16 13:47:36 51°11.392 2°36.961 19.990238 4.693873 34.055719 2.218888
2004-08-16 13:48:44 51°11.168 2°36.864 19.979675 4.690286 34.045878 1.612118
2004-08-16 13:49:43 51°10.972 2°36.786 19.9887 4.688809 34.037842 1.814375
2004-08-16 13:50:52 51°10.743 2°36.709 20.024508 4.689231 34.013996 2.589691
2004-08-16 13:51:53 51°10.535 2°36.698 20.11405 4.693872 34.031856 3.735811
2004-08-16 13:52:54 51°10.326 2°36.713 20.194802 4.705476 34.026875 2.185178
2004-08-16 13:53:59 51°10.16 2°36.976 20.190444 4.710434 34.033694 1.982922
2004-08-16 13:54:58 51°10.123 2°37.342 20.18665 4.707058 34.032914 1.915503
2004-08-16 13:56:00 51°10.116 2°37.742 20.190525 4.707796 34.022502 1.982922
2004-08-16 13:56:58 51°10.168 2°38.108 20.189153 4.707902 34.031271 2.050341
2004-08-16 13:58:07 51°10.265 2°38.534 20.252604 4.711594 34.028969 2.185178
2004-08-16 13:59:12 51°10.351 2°38.936 20.281347 4.715813 34.027563 2.387435
2004-08-16 14:00:13 51°10.426 2°39.323 20.29932 4.71729 34.021467 2.6234
2004-08-16 14:01:12 51°10.51 2°39.689 20.302301 4.718239 34.022381 3.162751
2004-08-16 14:02:12 51°10.595 2°40.06 20.309594 4.718661 34.016779 2.65711
2004-08-16 14:03:12 51°10.678 2°40.433 20.309876 4.719294 34.019642 2.454853
2004-08-16 14:04:14 51°10.761 2°40.822 20.312091 4.718661 34.012837 2.488563
2004-08-16 14:05:14 51°10.856 2°41.186 20.319826 4.718556 34.008607 2.522272
2004-08-16 14:06:12 51°10.955 2°41.535 20.315878 4.718767 34.008624 2.791947
2004-08-16 14:07:14 51°11.052 2°41.844 20.320148 4.718345 34.005777 2.926785
2004-08-16 14:08:13 51°11.082 2°42.023 20.319705 4.719611 34.011503 2.994204
2004-08-16 14:09:13 51°11.024 2°42.096 20.325183 4.720349 34.01578 2.65711
2004-08-16 14:10:20 51°10.992 2°42.085 20.334688 4.720243 34.010989 2.589691
2004-08-16 14:11:24 51°10.988 2°42.082 20.338313 4.720665 34.008208 2.522272
2004-08-16 14:12:30 51°10.995 2°42.088 20.348178 4.721087 34.007679 2.589691
2004-08-16 14:13:29 51°11.004 2°42.103 20.366899 4.722986 34.005581 2.589691
2004-08-16 14:14:30 51°11.018 2°42.128 20.357399 4.722986 34.006705 2.65711
2004-08-16 14:15:36 51°10.999 2°42.107 20.355506 4.722142 34.004951 2.589691
2004-08-16 14:16:34 51°10.96 2°42.249 20.355708 4.721615 34.004628 2.488563
2004-08-16 14:17:40 51°11.037 2°42.617 20.363558 4.722247 33.999058 2.522272
2004-08-16 14:18:40 51°11.103 2°42.993 20.359049 4.722459 34.003571 2.589691
2004-08-16 14:19:40 51°11.158 2°43.371 20.362431 4.722353 34.002158 2.65711
2004-08-16 14:20:40 51°11.205 2°43.748 20.365692 4.723091 34.004746 2.522272
2004-08-16 14:21:40 51°11.255 2°44.128 20.365007 4.723725 34.01098 2.421144
2004-08-16 14:22:40 51°11.323 2°44.497 20.378572 4.724674 34.012461 2.117759
2004-08-16 14:23:40 51°11.394 2°44.868 20.40847 4.726889 34.018537 2.218888
2004-08-16 14:24:40 51°11.484 2°45.229 20.449454 4.731636 34.026498 2.421144
2004-08-16 14:25:39 51°11.57 2°45.583 20.471564 4.736806 34.0401 2.252597
2004-08-16 14:26:40 51°11.664 2°45.946 20.492463 4.739443 34.044517 2.117759
2004-08-16 14:27:42 51°11.783 2°46.3 20.509699 4.741975 34.047523 1.645828
2004-08-16 14:28:44 51°11.903 2°46.648 20.520786 4.743663 34.051583 1.578409
2004-08-16 14:29:42 51°12.028 2°46.962 20.525084 4.744928 34.053366 1.612118
2004-08-16 14:30:42 51°12.147 2°47.298 20.531711 4.745667 34.058188 1.612118
2004-08-16 14:31:42 51°12.269 2°47.634 20.541991 4.746511 34.057695 1.713247
2004-08-16 14:32:48 51°12.406 2°48.005 20.544521 4.747355 34.057764 1.612118
2004-08-16 14:33:53 51°12.539 2°48.371 20.540345 4.746827 34.057441 1.578409
2004-08-16 14:34:58 51°12.661 2°48.752 20.539943 4.747144 34.057747 1.578409
2004-08-16 14:35:58 51°12.774 2°49.101 20.553274 4.746827 34.0552 1.713247
2004-08-16 14:37:10 51°12.905 2°49.519 20.573305 4.748832 34.055085 1.881794
2004-08-16 14:38:19 51°13.031 2°49.916 20.583499 4.750414 34.057175 1.915503
2004-08-16 14:39:18 51°13.141 2°50.254 20.612869 4.750414 34.042074 1.881794
2004-08-16 14:40:19 51°13.253 2°50.605 20.615998 4.748936 34.012893 1.578409
2004-08-16 14:41:19 51°13.363 2°50.947 20.6239 4.746721 33.991755 1.207606
2004-08-16 14:42:19 51°13.475 2°51.293 20.649444 4.744399 33.964204 1.241315
2004-08-16 14:43:18 51°13.58 2°51.636 20.637415 4.745349 33.960684 1.173896
2004-08-16 14:44:20 51°13.694 2°51.99 20.638377 4.74134 33.937422 1.342443
2004-08-16 14:45:22 51°13.801 2°52.343 20.650286 4.738702 33.909028 1.308734
2004-08-16 14:46:33 51°13.93 2°52.74 20.664839 4.735325 33.870839 1.51099
2004-08-16 14:47:32 51°14.051 2°53.059 20.69133 4.733215 33.83673 1.679537
2004-08-16 14:48:32 51°14.167 2°53.388 20.700025 4.731421 33.812389 1.612118
2004-08-16 14:49:37 51°14.285 2°53.731 20.687683 4.731632 33.816848 1.51099
2004-08-16 14:50:42 51°14.381 2°54.095 23.527844 4.728043 33.67182 1.477281
2004-08-16 14:51:42 51°14.439 2°54.454 21.725299 4.671472 32.110061 2.454853
2004-08-16 14:52:44 51°14.428 2°54.813 21.499607 4.709873 32.348072 -0.309317
2004-08-16 14:53:52 51°14.333 2°55.146 21.281304 4.73784 33.005636 -0.309317